Time;durP1;ratioP1;P1;durP2;ratioP2;P2;SDS_P1;SDS_P2;PMS_P1;PMS_P2;Temp;Humidity;BMP_temperature;BMP_pressure;BME280_temperature;BME280_humidity;BME280_pressure;Samples;Min_cycle;Max_cycle;Signal;HPM_P1;HPM_P2
2022/05/07 00:01:51;;;;;;;0.10;0.10;;;;;;;21.88;40.19;101911.97;5125084;28;20505;-29
2022/05/07 00:04:17;;;;;;;0.10;0.10;;;;;;;21.89;40.27;101916.41;5125833;27;20046;-29
2022/05/07 00:06:43;;;;;;;0.10;0.10;;;;;;;21.88;40.24;101909.19;5127146;28;20182;-30
2022/05/07 00:09:09;;;;;;;0.10;0.10;;;;;;;21.88;40.08;101909.19;5126207;28;20073;-31
2022/05/07 00:11:34;;;;;;;0.10;0.10;;;;;;;21.87;40.24;101908.38;5125923;28;20039;-30
2022/05/07 00:14:00;;;;;;;0.10;0.10;;;;;;;21.87;40.31;101907.53;5125931;28;20050;-30
2022/05/07 00:19:11;;;;;;;0.10;0.10;;;;;;;21.86;40.22;101903.94;5111589;28;20046;-32
2022/05/07 00:21:37;;;;;;;0.10;0.10;;;;;;;21.87;40.04;101902.81;5127090;28;20035;-30
2022/05/07 00:24:03;;;;;;;0.10;0.10;;;;;;;21.87;40.23;101899.22;5127187;28;20058;-31
2022/05/07 00:26:29;;;;;;;0.10;0.10;;;;;;;21.86;40.17;101898.41;5128472;27;21244;-29
2022/05/07 00:28:54;;;;;;;0.10;0.10;;;;;;;21.87;40.27;101902.00;5126199;28;20035;-30
2022/05/07 00:31:20;;;;;;;0.17;0.17;;;;;;;21.85;40.32;101899.50;5125565;27;20274;-29
2022/05/07 00:33:46;;;;;;;0.10;0.10;;;;;;;21.85;40.20;101898.66;5124853;28;20141;-32
2022/05/07 00:36:12;;;;;;;0.10;0.10;;;;;;;21.86;40.26;101901.16;5124496;28;20687;-30
2022/05/07 00:38:37;;;;;;;0.10;0.10;;;;;;;21.85;40.24;101895.88;5126751;28;20047;-30
2022/05/07 00:41:03;;;;;;;0.10;0.10;;;;;;;21.85;40.35;101890.34;5125454;28;20413;-31
2022/05/07 00:43:37;;;;;;;0.10;0.10;;;;;;;21.84;40.29;101892.28;5127707;28;20043;-31
2022/05/07 00:46:04;;;;;;;0.10;0.10;;;;;;;21.84;40.27;101889.50;5125690;28;20247;-30
2022/05/07 00:48:30;;;;;;;0.10;0.10;;;;;;;21.85;40.22;101887.56;5123780;28;20050;-30
2022/05/07 00:53:41;;;;;;;0.10;0.10;;;;;;;21.84;40.25;101885.91;5109354;28;20070;-30
2022/05/07 00:56:08;;;;;;;0.10;0.10;;;;;;;21.83;40.27;101879.53;5108604;28;20070;-30
2022/05/07 00:58:35;;;;;;;0.10;0.10;;;;;;;21.83;40.21;101885.06;5108512;28;20073;-30
2022/05/07 01:01:01;;;;;;;0.10;0.10;;;;;;;21.85;40.19;101884.78;5126407;28;20513;-31
2022/05/07 01:03:26;;;;;;;0.10;0.10;;;;;;;21.84;40.46;101880.34;5124869;27;20058;-31
2022/05/07 01:05:53;;;;;;;0.10;0.10;;;;;;;21.84;40.32;101883.13;5126021;28;20035;-29
2022/05/07 01:08:20;;;;;;;0.10;0.10;;;;;;;21.83;40.14;101884.25;5125045;28;20139;-30
2022/05/07 01:10:45;;;;;;;0.10;0.10;;;;;;;21.83;40.21;101890.63;5108618;28;20126;-30
2022/05/07 01:13:11;;;;;;;0.10;0.10;;;;;;;21.84;40.25;101891.44;5126494;28;20046;-29
2022/05/07 01:15:57;;;;;;;0.10;0.10;;;;;;;21.82;40.30;101883.41;5126918;28;20427;-29
2022/05/07 01:18:23;;;;;;;0.10;0.10;;;;;;;21.82;40.26;101877.88;5107644;28;20507;-30
2022/05/07 01:20:49;;;;;;;0.10;0.10;;;;;;;21.84;40.27;101880.34;5126594;28;20067;-30
2022/05/07 01:23:15;;;;;;;0.20;0.20;;;;;;;21.82;40.19;101880.66;5126373;28;20481;-30
2022/05/07 01:25:41;;;;;;;0.10;0.10;;;;;;;21.81;40.22;101873.44;5125108;28;20071;-29
2022/05/07 01:28:07;;;;;;;0.10;0.10;;;;;;;21.80;40.19;101868.97;5126347;28;20550;-30
2022/05/07 01:30:34;;;;;;;0.10;0.10;;;;;;;21.81;40.14;101869.84;5124256;28;20096;-31
2022/05/07 01:32:59;;;;;;;0.20;0.20;;;;;;;21.82;40.15;101868.72;5108480;28;20074;-30
2022/05/07 01:35:25;;;;;;;0.10;0.10;;;;;;;21.82;40.28;101868.72;5125221;28;20055;-31
2022/05/07 01:37:51;;;;;;;0.10;0.10;;;;;;;21.82;40.31;101866.78;5125666;28;20043;-30
2022/05/07 01:40:17;;;;;;;0.10;0.10;;;;;;;21.82;40.27;101863.19;5125469;28;20091;-30
2022/05/07 01:42:43;;;;;;;0.10;0.10;;;;;;;21.81;39.87;101861.53;5128942;27;20489;-30
2022/05/07 01:45:09;;;;;;;0.10;0.10;;;;;;;21.81;40.21;101858.75;5129351;28;20047;-31
2022/05/07 01:48:09;;;;;;;0.10;0.10;;;;;;;21.79;40.27;101862.59;5129151;28;20395;-30
2022/05/07 01:50:23;;;;;;;0.10;0.10;;;;;;;21.79;40.36;101864.56;5111331;28;20075;-30
2022/05/07 01:52:49;;;;;;;0.10;0.10;;;;;;;21.81;40.32;101858.75;5123605;28;20051;-30
2022/05/07 01:55:15;;;;;;;0.10;0.10;;;;;;;21.81;40.37;101861.53;5128524;28;20055;-30
2022/05/07 01:57:40;;;;;;;0.10;0.10;;;;;;;21.79;40.24;101865.38;5129042;28;20099;-30
2022/05/07 02:00:07;;;;;;;0.10;0.10;;;;;;;21.80;40.13;101866.22;5129178;28;20484;-30
2022/05/07 02:02:32;;;;;;;0.10;0.10;;;;;;;21.79;40.23;101864.56;5128756;28;20088;-29
2022/05/07 02:04:58;;;;;;;0.10;0.10;;;;;;;21.79;40.22;101865.38;5129047;27;20052;-30
2022/05/07 02:07:24;;;;;;;0.10;0.10;;;;;;;21.80;40.20;101868.97;5129420;28;20051;-30
2022/05/07 02:09:49;;;;;;;0.10;0.10;;;;;;;21.78;40.33;101872.03;5127915;28;20039;-30
2022/05/07 02:12:15;;;;;;;0.10;0.10;;;;;;;21.79;40.28;101864.56;5127625;28;20432;-31
2022/05/07 02:14:41;;;;;;;0.10;0.10;;;;;;;21.78;40.18;101868.44;5129316;28;20070;-30
2022/05/07 02:17:07;;;;;;;0.10;0.10;;;;;;;21.78;40.24;101860.94;5107641;28;20046;-30
2022/05/07 02:19:32;;;;;;;0.10;0.10;;;;;;;21.78;40.25;101863.72;5127346;28;20097;-30
2022/05/07 02:21:58;;;;;;;0.10;0.10;;;;;;;21.78;40.32;101866.50;5128200;28;20342;-29
2022/05/07 02:24:24;;;;;;;0.10;0.10;;;;;;;21.78;40.05;101860.94;5129147;28;20390;-31
2022/05/07 02:26:49;;;;;;;0.10;0.10;;;;;;;21.77;40.13;101864.84;5128600;28;20103;-30
2022/05/07 02:29:15;;;;;;;0.10;0.10;;;;;;;21.77;40.17;101864.00;5125065;28;20100;-30
2022/05/07 02:31:41;;;;;;;0.10;0.10;;;;;;;21.77;40.30;101864.84;5128125;28;20047;-30
2022/05/07 02:34:07;;;;;;;0.10;0.10;;;;;;;21.77;40.22;101867.59;5126923;28;20051;-31
2022/05/07 02:36:33;;;;;;;0.10;0.10;;;;;;;21.77;40.15;101864.84;5128478;28;20066;-30
2022/05/07 02:38:59;;;;;;;0.10;0.10;;;;;;;21.78;40.17;101862.91;5129544;28;20494;-31
2022/05/07 02:44:10;;;;;;;0.10;0.10;;;;;;;21.76;40.19;101859.53;5113672;28;20066;-30
2022/05/07 02:46:36;;;;;;;0.10;0.10;;;;;;;21.76;40.25;101862.31;5123719;28;20244;-30
2022/05/07 02:49:02;;;;;;;0.10;0.10;;;;;;;21.75;40.35;101867.03;5124848;28;20043;-30
2022/05/07 02:51:27;;;;;;;0.10;0.10;;;;;;;21.76;40.30;101860.41;5128088;28;20070;-30
2022/05/07 02:53:53;;;;;;;0.20;0.20;;;;;;;21.75;40.56;101864.25;5127335;28;20047;-30
2022/05/07 02:56:19;;;;;;;0.10;0.10;;;;;;;21.76;40.57;101862.31;5127310;28;20039;-29
2022/05/07 02:58:44;;;;;;;0.10;0.10;;;;;;;21.76;40.18;101860.41;5128578;28;20397;-30
2022/05/07 03:01:10;;;;;;;0.10;0.10;;;;;;;21.76;40.16;101862.31;5128724;28;20043;-30
2022/05/07 03:03:35;;;;;;;0.10;0.10;;;;;;;21.77;40.22;101866.78;5127514;27;20039;-31
2022/05/07 03:06:01;;;;;;;0.10;0.10;;;;;;;21.75;40.14;101860.66;5127734;28;20447;-30
2022/05/07 03:08:27;;;;;;;0.10;0.10;;;;;;;21.74;40.31;101859.84;5122336;28;20138;-29
2022/05/07 03:10:53;;;;;;;0.10;0.10;;;;;;;21.74;40.29;101862.59;5124823;28;20044;-29
2022/05/07 03:13:18;;;;;;;0.10;0.10;;;;;;;21.75;40.23;101860.66;5126847;28;20043;-30
2022/05/07 03:15:44;;;;;;;0.10;0.10;;;;;;;21.75;40.32;101861.50;5127735;28;20192;-30
2022/05/07 03:18:12;;;;;;;0.10;0.10;;;;;;;21.75;40.09;101861.50;5124579;28;20103;-30
2022/05/07 03:20:40;;;;;;;0.10;0.10;;;;;;;21.74;40.32;101859.84;5127352;28;20076;-30
2022/05/07 03:23:06;;;;;;;0.10;0.10;;;;;;;21.75;40.00;101853.19;5127744;28;20043;-29
2022/05/07 03:25:31;;;;;;;0.10;0.10;;;;;;;21.75;40.27;101849.56;5124336;28;20059;-29
2022/05/07 03:27:57;;;;;;;0.10;0.10;;;;;;;21.74;40.19;101850.69;5125617;28;20295;-31
2022/05/07 03:30:23;;;;;;;0.10;0.10;;;;;;;21.75;40.30;101855.94;5126295;28;20035;-30
2022/05/07 03:32:48;;;;;;;0.10;0.10;;;;;;;21.75;40.32;101858.72;5128709;28;20051;-30
2022/05/07 03:35:14;;;;;;;0.10;0.10;;;;;;;21.75;40.17;101858.72;5127015;28;20478;-31
2022/05/07 03:37:40;;;;;;;0.10;0.10;;;;;;;21.74;40.11;101853.47;5128834;28;20409;-31
2022/05/07 03:40:06;;;;;;;0.10;0.10;;;;;;;21.75;40.18;101852.34;5126554;28;20087;-30
2022/05/07 03:42:33;;;;;;;0.10;0.10;;;;;;;21.74;40.10;101850.69;5127335;28;20126;-31
2022/05/07 03:45:00;;;;;;;0.10;0.10;;;;;;;21.73;40.27;101863.72;5127173;28;20501;-30
2022/05/07 03:47:26;;;;;;;0.10;0.10;;;;;;;21.72;40.04;101844.59;5126382;28;20481;-29
2022/05/07 03:49:51;;;;;;;0.10;0.10;;;;;;;21.73;40.35;101851.81;5125232;28;20043;-30
2022/05/07 03:55:03;;;;;;;0.10;0.10;;;;;;;21.73;40.25;101849.03;5112363;28;20047;-29
2022/05/07 03:57:28;;;;;;;0.10;0.10;;;;;;;21.72;40.10;101847.38;5127495;28;20099;-30
2022/05/07 03:59:55;;;;;;;0.10;0.10;;;;;;;21.72;40.28;101842.66;5127431;28;20054;-31
2022/05/07 04:02:21;;;;;;;0.10;0.10;;;;;;;21.72;40.29;101852.91;5125854;28;20091;-29
2022/05/07 04:04:47;;;;;;;0.10;0.10;;;;;;;21.72;40.30;101850.97;5125590;27;20043;-30
2022/05/07 04:07:14;;;;;;;0.10;0.10;;;;;;;21.72;40.24;101847.38;5124027;28;20069;-29
2022/05/07 04:09:40;;;;;;;0.10;0.10;;;;;;;21.71;40.34;101852.06;5126207;28;20134;-30
2022/05/07 04:12:12;;;;;;;0.10;0.10;;;;;;;21.72;40.11;101855.69;5126259;28;20043;-30
2022/05/07 04:14:37;;;;;;;0.10;0.10;;;;;;;21.72;40.19;101858.47;5125317;28;20392;-30
2022/05/07 04:17:03;;;;;;;0.10;0.10;;;;;;;21.72;40.24;101858.47;5123012;28;20103;-29
2022/05/07 04:19:29;;;;;;;0.10;0.10;;;;;;;21.71;40.19;101857.59;5124325;28;20050;-30
2022/05/07 04:21:54;;;;;;;0.10;0.10;;;;;;;21.71;40.32;101868.69;5126460;28;20053;-30
2022/05/07 04:24:20;;;;;;;0.10;0.10;;;;;;;21.72;40.38;101864.00;5127918;28;20050;-29
2022/05/07 04:26:46;;;;;;;0.10;0.10;;;;;;;21.72;40.27;101869.56;5125607;28;20056;-31
2022/05/07 04:29:16;;;;;;;0.10;0.10;;;;;;;21.70;40.19;101863.44;5126206;28;20542;-30
2022/05/07 04:31:42;;;;;;;0.10;0.10;;;;;;;21.70;40.28;101872.59;5128364;28;20211;-30
2022/05/07 04:34:08;;;;;;;0.10;0.10;;;;;;;21.71;40.27;101877.00;5127235;28;20043;-29
2022/05/07 04:36:33;;;;;;;0.10;0.10;;;;;;;21.70;40.27;101878.13;5124950;28;20047;-29
2022/05/07 04:38:59;;;;;;;0.10;0.10;;;;;;;21.71;39.91;101874.25;5126207;28;20035;-29
2022/05/07 04:41:25;;;;;;;0.10;0.10;;;;;;;21.70;40.30;101872.59;5126453;28;20508;-29
2022/05/07 04:43:50;;;;;;;0.10;0.10;;;;;;;21.70;40.30;101878.13;5126436;28;20362;-30
2022/05/07 04:46:17;;;;;;;0.10;0.10;;;;;;;21.71;40.21;101879.78;5127561;28;20083;-31
2022/05/07 04:48:43;;;;;;;0.10;0.10;;;;;;;21.70;40.19;101878.13;5125100;28;20317;-30
2022/05/07 04:51:09;;;;;;;0.15;0.15;;;;;;;21.69;40.21;101886.72;5127332;28;20070;-29
2022/05/07 04:53:54;;;;;;;0.15;0.15;;;;;;;21.70;40.34;101882.84;5112137;28;20058;-30
2022/05/07 04:56:22;;;;;;;0.10;0.10;;;;;;;21.70;40.14;101880.91;5126950;28;20177;-30
2022/05/07 04:58:48;;;;;;;0.10;0.10;;;;;;;21.70;40.39;101880.06;5126077;28;20335;-30
2022/05/07 05:01:13;;;;;;;0.10;0.10;;;;;;;21.70;40.17;101878.13;5127149;28;20051;-29
2022/05/07 05:03:39;;;;;;;0.20;0.20;;;;;;;21.69;40.19;101887.56;5126182;27;20057;-29
2022/05/07 05:06:05;;;;;;;0.10;0.10;;;;;;;21.69;40.01;101886.72;5126746;28;20062;-30
2022/05/07 05:08:31;;;;;;;0.10;0.10;;;;;;;21.69;40.28;101887.56;5125475;28;20054;-30
2022/05/07 05:10:56;;;;;;;0.10;0.10;;;;;;;21.69;40.29;101893.09;5124548;28;20589;-30
2022/05/07 05:13:22;;;;;;;0.10;0.10;;;;;;;21.69;40.31;101898.66;5126685;28;20043;-30
2022/05/07 05:15:47;;;;;;;0.10;0.10;;;;;;;21.69;40.25;101895.03;5125616;27;20472;-30
2022/05/07 05:18:13;;;;;;;0.15;0.15;;;;;;;21.68;40.20;101905.31;5125666;28;20572;-31
2022/05/07 05:20:39;;;;;;;0.10;0.10;;;;;;;21.70;40.25;101907.78;5130115;28;20044;-31
2022/05/07 05:23:06;;;;;;;0.10;0.10;;;;;;;21.68;40.20;101905.31;5129903;28;20079;-29
2022/05/07 05:25:32;;;;;;;0.10;0.10;;;;;;;21.69;40.23;101911.69;5129976;28;20089;-30
2022/05/07 05:27:57;;;;;;;0.10;0.10;;;;;;;21.68;40.34;101908.06;5127707;28;20458;-30
2022/05/07 05:30:24;;;;;;;0.10;0.10;;;;;;;21.68;40.23;101916.41;5131028;28;20049;-30
2022/05/07 05:32:50;;;;;;;0.10;0.10;;;;;;;21.68;40.20;101916.41;5126737;28;20130;-30
2022/05/07 05:35:15;;;;;;;0.10;0.10;;;;;;;21.68;40.23;101912.78;5129388;28;20074;-30
2022/05/07 05:37:41;;;;;;;0.10;0.10;;;;;;;21.68;40.32;101910.84;5128367;28;20046;-30
2022/05/07 05:40:07;;;;;;;0.10;0.10;;;;;;;21.67;40.18;101905.56;5129898;28;20094;-30
2022/05/07 05:42:33;;;;;;;0.10;0.10;;;;;;;21.67;40.10;101908.34;5128813;28;20071;-30
2022/05/07 05:44:58;;;;;;;0.10;0.10;;;;;;;21.67;40.31;101906.38;5129414;28;20069;-30
2022/05/07 05:47:24;;;;;;;0.10;0.10;;;;;;;21.68;40.25;101908.06;5129509;28;20051;-31
2022/05/07 05:49:50;;;;;;;0.10;0.10;;;;;;;21.67;40.20;101900.84;5129256;28;20171;-31
2022/05/07 05:52:16;;;;;;;0.10;0.10;;;;;;;21.67;40.15;101900.00;5129153;28;20046;-29
2022/05/07 05:54:42;;;;;;;0.10;0.10;;;;;;;21.66;40.38;101910.28;5130736;28;20046;-30
2022/05/07 05:57:12;;;;;;;0.10;0.10;;;;;;;21.66;40.29;101913.03;5129369;28;20057;-30
2022/05/07 05:59:38;;;;;;;0.10;0.10;;;;;;;21.66;40.24;101907.50;5128623;28;20035;-30
2022/05/07 06:02:04;;;;;;;0.10;0.10;;;;;;;21.66;40.30;101909.44;5129761;28;20118;-29
2022/05/07 06:04:32;;;;;;;0.10;0.10;;;;;;;21.66;40.14;101907.50;5129198;27;20043;-31
2022/05/07 06:06:58;;;;;;;0.10;0.10;;;;;;;21.65;40.26;101905.00;5129976;28;20059;-30
2022/05/07 06:09:24;;;;;;;0.10;0.10;;;;;;;21.66;40.23;101904.72;5129001;28;20166;-31
2022/05/07 06:11:51;;;;;;;0.10;0.10;;;;;;;21.65;40.26;101897.53;5129348;28;20493;-30
2022/05/07 06:14:16;;;;;;;0.10;0.10;;;;;;;21.65;40.16;101907.78;5127461;28;20100;-29
2022/05/07 06:16:42;;;;;;;0.10;0.10;;;;;;;21.65;40.66;101908.63;5128985;28;20055;-29
2022/05/07 06:19:08;;;;;;;0.10;0.10;;;;;;;21.65;40.29;101911.38;5121554;28;20047;-30
2022/05/07 06:21:34;;;;;;;0.10;0.10;;;;;;;21.66;40.16;101915.00;5129544;28;20043;-30
2022/05/07 06:27:28;;;;;;;0.10;0.10;;;;;;;21.65;40.16;101918.88;5128281;28;20035;-30
2022/05/07 06:29:30;;;;;;;0.10;0.10;;;;;;;21.65;40.24;101919.72;5108413;28;20043;-30
2022/05/07 06:31:56;;;;;;;0.10;0.10;;;;;;;21.65;40.03;101927.19;5128964;28;20110;-31
2022/05/07 06:34:24;;;;;;;0.10;0.10;;;;;;;21.65;40.24;101916.94;5127782;28;20110;-29
2022/05/07 06:36:49;;;;;;;0.10;0.10;;;;;;;21.64;40.05;101923.59;5126396;28;20166;-30
2022/05/07 06:39:17;;;;;;;0.10;0.10;;;;;;;21.64;40.29;101922.75;5126089;28;20066;-32
2022/05/07 06:41:43;;;;;;;0.10;0.10;;;;;;;21.64;40.22;101923.59;5127117;28;20134;-30
2022/05/07 06:44:08;;;;;;;0.20;0.20;;;;;;;21.64;40.33;101922.75;5127332;28;20588;-30
2022/05/07 06:46:34;;;;;;;0.10;0.10;;;;;;;21.64;40.46;101923.59;5127704;28;20043;-31
2022/05/07 06:49:00;;;;;;;0.10;0.10;;;;;;;21.64;40.23;101920.81;5125361;28;20050;-30
2022/05/07 06:51:26;;;;;;;0.10;0.10;;;;;;;21.63;40.29;101916.38;5129623;28;20045;-32
2022/05/07 06:53:52;;;;;;;0.10;0.10;;;;;;;21.64;40.30;101923.59;5127703;27;20172;-30
2022/05/07 06:56:17;;;;;;;0.10;0.10;;;;;;;21.64;40.26;101928.31;5129394;28;20050;-30
2022/05/07 06:58:43;;;;;;;0.10;0.10;;;;;;;21.63;40.15;101930.25;5127742;28;20050;-30
2022/05/07 07:01:08;;;;;;;0.10;0.10;;;;;;;21.64;40.26;101936.63;5128682;28;20039;-31
2022/05/07 07:03:36;;;;;;;0.10;0.10;;;;;;;21.63;40.19;101933.03;5127604;27;20489;-29
2022/05/07 07:06:02;;;;;;;0.10;0.10;;;;;;;21.63;40.16;101930.25;5129084;28;20051;-30
2022/05/07 07:08:29;;;;;;;0.10;0.10;;;;;;;21.63;40.31;101934.94;5124345;28;20047;-31
2022/05/07 07:10:55;;;;;;;0.10;0.10;;;;;;;21.63;40.14;101933.03;5124360;28;20506;-30
2022/05/07 07:13:20;;;;;;;0.10;0.10;;;;;;;21.63;40.25;101932.16;5128308;28;20039;-30
2022/05/07 07:15:47;;;;;;;0.10;0.10;;;;;;;21.62;40.31;101930.50;5128057;28;20043;-31
2022/05/07 07:18:12;;;;;;;0.10;0.10;;;;;;;21.63;40.23;101937.72;5124293;28;20495;-31
2022/05/07 07:20:39;;;;;;;0.10;0.10;;;;;;;21.63;40.26;101934.94;5126171;28;20219;-29
2022/05/07 07:23:06;;;;;;;0.10;0.10;;;;;;;21.63;40.33;101932.16;5108406;28;20082;-29
2022/05/07 07:25:32;;;;;;;0.10;0.10;;;;;;;21.62;40.31;101931.34;5110539;28;20093;-30
2022/05/07 07:27:57;;;;;;;0.10;0.10;;;;;;;21.62;40.15;101928.56;5127334;28;20123;-30
2022/05/07 07:30:23;;;;;;;0.10;0.10;;;;;;;21.62;40.25;101933.28;5127370;28;20047;-32
2022/05/07 07:32:49;;;;;;;0.10;0.10;;;;;;;21.62;40.55;101928.56;5127112;28;20051;-30
2022/05/07 07:35:14;;;;;;;0.10;0.10;;;;;;;21.61;40.31;101924.13;5126502;28;20072;-29
2022/05/07 07:37:40;;;;;;;0.10;0.10;;;;;;;21.62;40.16;101923.00;5126433;28;20084;-29
2022/05/07 07:40:06;;;;;;;0.17;0.17;;;;;;;21.62;40.15;101923.00;5126613;27;20948;-30
2022/05/07 07:42:31;;;;;;;0.10;0.10;;;;;;;21.61;40.16;101926.91;5129997;28;20079;-30
2022/05/07 07:47:59;;;;;;;0.10;0.10;;;;;;;21.61;40.28;101926.91;5110820;28;20078;-30
2022/05/07 07:50:29;;;;;;;0.10;0.10;;;;;;;21.61;40.18;101928.84;5126089;28;20145;-30
2022/05/07 07:52:56;;;;;;;0.10;0.10;;;;;;;21.61;40.37;101928.84;5127501;28;20075;-31
2022/05/07 07:55:23;;;;;;;0.20;0.20;;;;;;;21.60;40.34;101919.69;5128378;28;20519;-29
2022/05/07 07:57:52;;;;;;;0.10;0.10;;;;;;;21.61;40.39;101918.59;5126170;28;20089;-30
2022/05/07 08:00:17;;;;;;;0.10;0.10;;;;;;;21.61;40.32;101926.91;5127450;28;20075;-31
2022/05/07 08:02:52;;;;;;;0.10;0.10;;;;;;;21.61;40.15;101929.66;5127576;27;20047;-29
2022/05/07 08:05:31;;;;;;;0.10;0.10;;;;;;;21.60;40.27;101928.00;5127530;28;20047;-29
2022/05/07 08:13:36;;;;;;;0.10;0.10;;;;;;;21.59;40.14;101931.03;5110792;28;20130;-30
2022/05/07 08:16:03;;;;;;;0.10;0.10;;;;;;;21.59;40.25;101934.66;5127375;28;20135;-30
2022/05/07 08:18:29;;;;;;;0.10;0.10;;;;;;;21.59;40.11;101931.91;5123448;28;20462;-30
2022/05/07 08:20:56;;;;;;;0.10;0.10;;;;;;;21.59;40.40;101934.66;5127025;28;20043;-31
2022/05/07 08:23:22;;;;;;;0.10;0.10;;;;;;;21.59;40.25;101931.91;5108602;28;20122;-30
2022/05/07 08:25:48;;;;;;;0.10;0.10;;;;;;;21.60;40.10;101938.28;5127041;28;20348;-31
2022/05/07 08:28:15;;;;;;;0.10;0.10;;;;;;;21.59;40.30;101934.66;5127375;28;20085;-30
2022/05/07 08:30:43;;;;;;;0.10;0.10;;;;;;;21.59;40.23;101937.44;5109387;28;20043;-30
2022/05/07 08:33:09;;;;;;;0.10;0.10;;;;;;;21.59;40.29;101940.22;5127005;28;20079;-30
2022/05/07 08:35:34;;;;;;;0.10;0.10;;;;;;;21.59;40.19;101934.66;5127189;28;20078;-30
2022/05/07 08:38:00;;;;;;;0.10;0.10;;;;;;;21.59;40.33;101934.66;5126043;28;20091;-30
2022/05/07 08:40:27;;;;;;;0.10;0.10;;;;;;;21.58;40.24;101937.69;5125178;28;20055;-29
2022/05/07 08:42:55;;;;;;;0.10;0.10;;;;;;;21.57;40.38;101928.56;5125450;28;20573;-30
2022/05/07 08:45:21;;;;;;;0.10;0.10;;;;;;;21.59;39.84;101929.13;5107086;28;20135;-31
2022/05/07 08:47:51;;;;;;;0.10;0.10;;;;;;;21.59;40.25;101933.81;5106858;28;20081;-30
2022/05/07 08:50:18;;;;;;;0.10;0.10;;;;;;;21.59;40.22;101928.28;5126607;27;20035;-30
2022/05/07 08:52:43;;;;;;;0.10;0.10;;;;;;;21.58;40.22;101935.75;5130406;28;20050;-31
2022/05/07 08:55:12;;;;;;;0.10;0.10;;;;;;;21.58;40.05;101930.22;5130967;28;20485;-31
2022/05/07 08:57:39;;;;;;;0.10;0.10;;;;;;;21.57;40.35;101927.72;5094463;28;20505;-29
2022/05/07 09:00:05;;;;;;;0.15;0.15;;;;;;;21.57;40.16;101928.56;5110239;28;20066;-32
2022/05/07 09:02:49;;;;;;;0.10;0.10;;;;;;;21.58;40.29;101932.16;5130555;27;20047;-30
2022/05/07 09:05:20;;;;;;;0.10;0.10;;;;;;;21.57;40.33;101925.78;5129094;28;20493;-30
2022/05/07 09:08:00;;;;;;;0.10;0.10;;;;;;;21.57;40.38;101934.09;5111589;28;20468;-29
2022/05/07 09:10:34;;;;;;;0.10;0.10;;;;;;;21.57;40.34;101930.50;5127513;28;20417;-30
2022/05/07 09:13:10;;;;;;;0.10;0.10;;;;;;;21.57;40.08;101936.88;5132118;28;20054;-31
2022/05/07 09:15:37;;;;;;;0.10;0.10;;;;;;;21.57;40.22;101936.03;5130845;28;20477;-29
2022/05/07 09:18:19;;;;;;;0.10;0.10;;;;;;;21.56;40.31;101929.66;5127232;28;20039;-30
2022/05/07 09:21:26;;;;;;;0.10;0.10;;;;;;;21.57;40.31;101933.25;5129434;28;20079;-30
2022/05/07 09:24:06;;;;;;;0.10;0.10;;;;;;;21.57;40.27;101933.25;5130660;28;20397;-31
2022/05/07 09:26:37;;;;;;;0.10;0.10;;;;;;;21.56;40.14;101921.34;5129506;28;20051;-31
2022/05/07 09:29:06;;;;;;;0.10;0.10;;;;;;;21.56;40.26;101924.13;5129728;28;20138;-30
2022/05/07 09:31:33;;;;;;;0.10;0.10;;;;;;;21.56;40.15;101924.13;5129164;28;20074;-32
2022/05/07 09:36:50;;;;;;;0.10;0.10;;;;;;;21.56;40.21;101913.03;5113386;28;20122;-30
2022/05/07 09:39:15;;;;;;;0.10;0.10;;;;;;;21.56;40.23;101915.81;5129013;28;20050;-31
2022/05/07 09:41:43;;;;;;;0.10;0.10;;;;;;;21.56;40.35;101915.81;5128787;27;20047;-30
2022/05/07 09:44:09;;;;;;;0.10;0.10;;;;;;;21.56;40.38;101912.22;5130160;28;20119;-30
2022/05/07 09:46:35;;;;;;;0.10;0.10;;;;;;;21.55;40.13;101914.16;5129974;28;20078;-30
2022/05/07 09:49:03;;;;;;;0.10;0.10;;;;;;;21.56;40.25;101918.56;5128083;28;20062;-31
2022/05/07 09:51:30;;;;;;;0.10;0.10;;;;;;;21.56;40.27;101914.97;5129296;28;20070;-30
2022/05/07 09:59:28;;;;;;;0.22;0.22;;;;;;;21.55;40.23;101908.59;5113800;28;20067;-29
2022/05/07 10:02:20;;;;;;;0.10;0.10;;;;;;;21.56;40.13;101907.50;5129617;27;20126;-29
2022/05/07 10:04:59;;;;;;;0.10;0.10;;;;;;;21.55;40.27;101911.38;5113752;28;20043;-31
2022/05/07 10:07:46;;;;;;;0.10;0.10;;;;;;;21.55;40.42;101914.16;5128353;28;20078;-30
2022/05/07 10:12:55;;;;;;;0.20;0.20;;;;;;;21.56;40.08;101914.97;5173376;27;20201;-28
2022/05/07 10:15:23;;;;;;;0.10;0.10;;;;;;;21.56;40.18;101912.22;5130872;27;20069;-28
2022/05/07 10:18:07;;;;;;;0.10;0.10;;;;;;;21.55;40.37;101905.84;5155068;27;20501;-28
2022/05/07 10:20:38;;;;;;;0.10;0.10;;;;;;;21.55;40.35;101903.06;5154095;27;20097;-29
2022/05/07 10:23:04;;;;;;;0.10;0.10;;;;;;;21.55;40.30;101903.06;5155659;27;20073;-28
2022/05/07 10:25:30;;;;;;;0.10;0.10;;;;;;;21.55;40.22;101897.50;5153083;27;20039;-28
2022/05/07 10:28:06;;;;;;;0.10;0.10;;;;;;;21.57;40.33;101902.78;5153208;27;20500;-28
2022/05/07 10:30:44;;;;;;;0.10;0.10;;;;;;;21.54;40.16;101898.59;5139186;27;20070;-28
2022/05/07 10:33:10;;;;;;;0.10;0.10;;;;;;;21.55;40.35;101891.97;5156967;27;20094;-27
2022/05/07 10:35:41;;;;;;;0.10;0.10;;;;;;;21.55;40.39;101894.75;5154751;27;20043;-27
2022/05/07 10:38:12;;;;;;;0.10;0.10;;;;;;;21.54;40.24;101896.69;5149735;27;20495;-28
2022/05/07 10:40:50;;;;;;;0.10;0.10;;;;;;;21.54;40.25;101893.06;5152960;27;20132;-27
2022/05/07 10:43:28;;;;;;;0.10;0.10;;;;;;;21.56;40.43;101887.25;5155144;27;20602;-27
2022/05/07 10:45:55;;;;;;;0.10;0.10;;;;;;;21.54;40.30;101887.50;5153612;27;20482;-28
2022/05/07 10:48:21;;;;;;;0.10;0.10;;;;;;;21.52;40.53;101882.25;5152678;27;20080;-27
2022/05/07 10:51:00;;;;;;;0.10;0.10;;;;;;;21.54;40.16;101885.59;5153715;27;20047;-28
2022/05/07 10:53:41;;;;;;;0.10;0.10;;;;;;;21.54;40.28;101887.50;5151295;27;20628;-28
2022/05/07 10:56:21;;;;;;;0.10;0.10;;;;;;;21.54;40.33;101880.06;5155082;27;20473;-28
2022/05/07 10:58:49;;;;;;;0.10;0.10;;;;;;;21.54;40.27;101881.97;5152942;27;20368;-28
2022/05/07 11:01:17;;;;;;;0.10;0.10;;;;;;;21.55;40.22;101875.34;5156921;27;20074;-28
2022/05/07 11:03:43;;;;;;;0.10;0.10;;;;;;;21.53;40.42;101875.59;5153780;27;20058;-28
2022/05/07 11:06:09;;;;;;;0.10;0.10;;;;;;;21.55;40.37;101878.13;5149984;27;20090;-27
2022/05/07 11:08:45;;;;;;;0.10;0.10;;;;;;;21.54;40.21;101874.50;5148790;27;20265;-27
2022/05/07 11:11:11;;;;;;;0.10;0.10;;;;;;;21.53;40.33;101881.13;5150134;27;20074;-28
2022/05/07 11:13:45;;;;;;;0.10;0.10;;;;;;;21.55;40.27;101872.56;5133546;27;20053;-27
2022/05/07 11:16:11;;;;;;;0.10;0.10;;;;;;;21.54;40.21;101870.88;5153727;27;20121;-29
2022/05/07 11:18:40;;;;;;;0.10;0.10;;;;;;;21.54;40.31;101870.88;5134644;27;20077;-28
2022/05/07 11:21:06;;;;;;;0.10;0.10;;;;;;;21.54;40.29;101877.28;5150839;27;20498;-28
2022/05/07 11:23:36;;;;;;;0.10;0.10;;;;;;;21.52;40.31;101870.34;5143973;27;20118;-30
2022/05/07 11:26:12;;;;;;;0.10;0.10;;;;;;;21.53;40.45;101869.22;5141441;27;20126;-28
2022/05/07 11:28:39;;;;;;;0.10;0.10;;;;;;;21.54;40.37;101863.44;5137100;27;20124;-27
2022/05/07 11:31:05;;;;;;;0.10;0.10;;;;;;;21.52;40.33;101862.84;5144454;27;20085;-28
2022/05/07 11:33:31;;;;;;;0.10;0.10;;;;;;;21.53;40.36;101858.97;5140033;27;20078;-28
2022/05/07 11:36:07;;;;;;;0.10;0.10;;;;;;;21.54;40.35;101855.13;5137008;27;20243;-28
2022/05/07 11:38:34;;;;;;;0.10;0.10;;;;;;;21.54;40.25;101857.03;5134721;27;20093;-29
2022/05/07 11:41:15;;;;;;;0.10;0.10;;;;;;;21.53;40.35;101853.44;5141219;27;20134;-30
2022/05/07 11:46:54;;;;;;;0.10;0.10;;;;;;;21.53;40.28;101856.19;5119592;27;20097;-29
2022/05/07 11:49:35;;;;;;;0.10;0.10;;;;;;;21.52;40.24;101842.63;5133550;27;20489;-28
2022/05/07 11:52:09;;;;;;;0.10;0.10;;;;;;;21.54;40.22;101843.16;5130443;27;20180;-28
2022/05/07 11:54:35;;;;;;;0.10;0.10;;;;;;;21.53;40.23;101842.34;5134348;27;20071;-27
2022/05/07 11:57:00;;;;;;;0.10;0.10;;;;;;;21.54;40.31;101843.16;5134313;27;20224;-29
2022/05/07 11:59:27;;;;;;;0.10;0.10;;;;;;;21.52;40.31;101843.44;5116816;27;20421;-28
2022/05/07 12:01:52;;;;;;;0.10;0.10;;;;;;;21.54;40.24;101837.63;5131215;27;20082;-29
2022/05/07 12:04:18;;;;;;;0.10;0.10;;;;;;;21.54;40.29;101832.94;5131052;27;20040;-27